sensor_id;sensor_type;location;lat;lon;timestamp;pressure;altitude;pressure_sealevel;temperature;humidity
62849;BME280;48941;49.516;8.286;2022-07-04T00:00:13;100627.28;;;21.44;54.17
62849;BME280;48941;49.516;8.286;2022-07-04T00:02:42;100630.81;;;21.44;54.00
62849;BME280;48941;49.516;8.286;2022-07-04T00:05:13;100622.91;;;21.43;54.31
62849;BME280;48941;49.516;8.286;2022-07-04T00:07:43;100626.59;;;21.42;54.35
62849;BME280;48941;49.516;8.286;2022-07-04T00:10:14;100622.41;;;21.39;54.37
62849;BME280;48941;49.516;8.286;2022-07-04T00:12:42;100617.16;;;21.38;54.17
62849;BME280;48941;49.516;8.286;2022-07-04T00:15:11;100624.72;;;21.27;54.62
62849;BME280;48941;49.516;8.286;2022-07-04T00:17:39;100623.91;;;21.27;54.48
62849;BME280;48941;49.516;8.286;2022-07-04T00:20:09;100622.19;;;21.26;54.66
62849;BME280;48941;49.516;8.286;2022-07-04T00:22:38;100623.91;;;21.27;54.35
62849;BME280;48941;49.516;8.286;2022-07-04T00:25:07;100633.22;;;21.24;54.58
62849;BME280;48941;49.516;8.286;2022-07-04T00:27:35;100638.63;;;21.24;54.73
62849;BME280;48941;49.516;8.286;2022-07-04T00:30:04;100640.44;;;21.17;55.18
62849;BME280;48941;49.516;8.286;2022-07-04T00:32:32;100624.06;;;21.11;55.08
62849;BME280;48941;49.516;8.286;2022-07-04T00:35:00;100619.88;;;21.08;54.62
62849;BME280;48941;49.516;8.286;2022-07-04T00:37:28;100621.09;;;21.05;54.31
62849;BME280;48941;49.516;8.286;2022-07-04T00:39:57;100620.44;;;21.03;54.40
62849;BME280;48941;49.516;8.286;2022-07-04T00:42:24;100622.84;;;20.98;54.71
62849;BME280;48941;49.516;8.286;2022-07-04T00:44:52;100625.28;;;20.93;54.82
62849;BME280;48941;49.516;8.286;2022-07-04T00:47:20;100621.16;;;20.82;54.85
62849;BME280;48941;49.516;8.286;2022-07-04T00:49:48;100621.72;;;20.78;55.20
62849;BME280;48941;49.516;8.286;2022-07-04T00:52:16;100621.22;;;20.74;54.82
62849;BME280;48941;49.516;8.286;2022-07-04T00:54:46;100621.31;;;20.66;54.97
62849;BME280;48941;49.516;8.286;2022-07-04T00:57:16;100633.88;;;20.59;54.95
62849;BME280;48941;49.516;8.286;2022-07-04T00:59:44;100635.13;;;20.48;54.99
62849;BME280;48941;49.516;8.286;2022-07-04T01:02:12;100642.94;;;20.43;54.58
62849;BME280;48941;49.516;8.286;2022-07-04T01:04:40;100653.09;;;20.41;54.57
62849;BME280;48941;49.516;8.286;2022-07-04T01:07:11;100650.28;;;20.34;54.51
62849;BME280;48941;49.516;8.286;2022-07-04T01:09:39;100651.84;;;20.28;54.58
62849;BME280;48941;49.516;8.286;2022-07-04T01:12:07;100656.41;;;20.28;54.88
62849;BME280;48941;49.516;8.286;2022-07-04T01:14:38;100664.88;;;20.25;54.64
62849;BME280;48941;49.516;8.286;2022-07-04T01:17:06;100664.22;;;20.23;54.71
62849;BME280;48941;49.516;8.286;2022-07-04T01:19:34;100664.94;;;20.17;55.06
62849;BME280;48941;49.516;8.286;2022-07-04T01:22:06;100662.63;;;20.14;54.71
62849;BME280;48941;49.516;8.286;2022-07-04T01:24:34;100667.69;;;20.08;54.80
62849;BME280;48941;49.516;8.286;2022-07-04T01:27:02;100670.78;;;20.05;54.60
62849;BME280;48941;49.516;8.286;2022-07-04T01:29:31;100674.31;;;20.06;54.72
62849;BME280;48941;49.516;8.286;2022-07-04T01:32:03;100675.88;;;20.00;54.62
62849;BME280;48941;49.516;8.286;2022-07-04T01:34:31;100675.03;;;20.00;54.99
62849;BME280;48941;49.516;8.286;2022-07-04T01:36:59;100680.13;;;19.95;54.70
62849;BME280;48941;49.516;8.286;2022-07-04T01:39:29;100680.66;;;19.90;55.03
62849;BME280;48941;49.516;8.286;2022-07-04T01:41:57;100682.19;;;19.84;55.01
62849;BME280;48941;49.516;8.286;2022-07-04T01:44:25;100683.03;;;19.85;55.07
62849;BME280;48941;49.516;8.286;2022-07-04T01:46:53;100682.25;;;19.76;55.13
62849;BME280;48941;49.516;8.286;2022-07-04T01:49:21;100683.75;;;19.70;55.07
62849;BME280;48941;49.516;8.286;2022-07-04T01:51:50;100682.41;;;19.66;55.29
62849;BME280;48941;49.516;8.286;2022-07-04T01:54:19;100683.13;;;19.60;55.71
62849;BME280;48941;49.516;8.286;2022-07-04T01:56:48;100677.59;;;19.54;55.89
62849;BME280;48941;49.516;8.286;2022-07-04T01:59:16;100686.19;;;19.49;56.00
62849;BME280;48941;49.516;8.286;2022-07-04T02:01:44;100675.91;;;19.44;56.18
62849;BME280;48941;49.516;8.286;2022-07-04T02:04:11;100678.31;;;19.39;56.01
62849;BME280;48941;49.516;8.286;2022-07-04T02:06:39;100676.59;;;19.38;56.57
62849;BME280;48941;49.516;8.286;2022-07-04T02:09:07;100682.38;;;19.35;56.36
62849;BME280;48941;49.516;8.286;2022-07-04T02:11:44;100685.56;;;19.30;56.51
62849;BME280;48941;49.516;8.286;2022-07-04T02:14:33;100682.88;;;19.30;56.65
62849;BME280;48941;49.516;8.286;2022-07-04T02:17:01;100687.44;;;19.30;56.85
62849;BME280;48941;49.516;8.286;2022-07-04T02:19:29;100688.63;;;19.27;56.64
62849;BME280;48941;49.516;8.286;2022-07-04T02:21:57;100690.66;;;19.25;56.61
62849;BME280;48941;49.516;8.286;2022-07-04T02:24:24;100687.97;;;19.25;56.84
62849;BME280;48941;49.516;8.286;2022-07-04T02:26:52;100679.69;;;19.19;56.89
62849;BME280;48941;49.516;8.286;2022-07-04T02:29:20;100688.16;;;19.16;57.33
62849;BME280;48941;49.516;8.286;2022-07-04T02:31:49;100689.50;;;19.20;56.81
62849;BME280;48941;49.516;8.286;2022-07-04T02:34:17;100699.63;;;19.18;57.34
62849;BME280;48941;49.516;8.286;2022-07-04T02:36:45;100698.78;;;19.17;57.07
62849;BME280;48941;49.516;8.286;2022-07-04T02:39:13;100700.47;;;19.18;57.34
62849;BME280;48941;49.516;8.286;2022-07-04T02:41:41;100697.75;;;19.18;57.31
62849;BME280;48941;49.516;8.286;2022-07-04T02:44:09;100700.81;;;19.15;57.53
62849;BME280;48941;49.516;8.286;2022-07-04T02:46:37;100699.13;;;19.14;57.52
62849;BME280;48941;49.516;8.286;2022-07-04T02:49:07;100701.97;;;19.13;57.51
62849;BME280;48941;49.516;8.286;2022-07-04T02:51:34;100696.94;;;19.09;57.61
62849;BME280;48941;49.516;8.286;2022-07-04T02:54:02;100704.38;;;19.07;57.85
62849;BME280;48941;49.516;8.286;2022-07-04T02:56:30;100711.13;;;19.03;58.05
62849;BME280;48941;49.516;8.286;2022-07-04T02:58:58;100710.44;;;19.01;57.99
62849;BME280;48941;49.516;8.286;2022-07-04T03:01:26;100719.53;;;19.00;57.87
62849;BME280;48941;49.516;8.286;2022-07-04T03:03:54;100713.47;;;18.98;58.10
62849;BME280;48941;49.516;8.286;2022-07-04T03:06:24;100716.34;;;18.97;58.31
62849;BME280;48941;49.516;8.286;2022-07-04T03:08:52;100723.09;;;18.93;58.48
62849;BME280;48941;49.516;8.286;2022-07-04T03:11:20;100722.25;;;18.84;58.67
62849;BME280;48941;49.516;8.286;2022-07-04T03:13:48;100721.75;;;18.80;58.71
62849;BME280;48941;49.516;8.286;2022-07-04T03:16:16;100729.28;;;18.77;58.87
62849;BME280;48941;49.516;8.286;2022-07-04T03:18:44;100735.72;;;18.76;58.98
62849;BME280;48941;49.516;8.286;2022-07-04T03:21:12;100738.25;;;18.77;58.84
62849;BME280;48941;49.516;8.286;2022-07-04T03:23:41;100738.78;;;18.81;58.83
62849;BME280;48941;49.516;8.286;2022-07-04T03:26:09;100730.31;;;18.76;59.37
62849;BME280;48941;49.516;8.286;2022-07-04T03:28:38;100737.22;;;18.70;59.88
62849;BME280;48941;49.516;8.286;2022-07-04T03:31:05;100735.72;;;18.67;59.82
62849;BME280;48941;49.516;8.286;2022-07-04T03:33:33;100733.69;;;18.61;60.05
62849;BME280;48941;49.516;8.286;2022-07-04T03:36:01;100735.72;;;18.59;60.19
62849;BME280;48941;49.516;8.286;2022-07-04T03:38:29;100737.22;;;18.54;60.40
62849;BME280;48941;49.516;8.286;2022-07-04T03:40:58;100739.25;;;18.51;60.28
62849;BME280;48941;49.516;8.286;2022-07-04T03:43:26;100735.88;;;18.49;60.10
62849;BME280;48941;49.516;8.286;2022-07-04T03:45:54;100735.34;;;18.46;60.74
62849;BME280;48941;49.516;8.286;2022-07-04T03:48:22;100730.28;;;18.43;60.52
62849;BME280;48941;49.516;8.286;2022-07-04T03:50:50;100735.84;;;18.41;60.65
62849;BME280;48941;49.516;8.286;2022-07-04T03:53:18;100744.25;;;18.38;60.70
62849;BME280;48941;49.516;8.286;2022-07-04T03:55:46;100741.72;;;18.37;60.61
62849;BME280;48941;49.516;8.286;2022-07-04T03:58:16;100739.19;;;18.35;60.82
62849;BME280;48941;49.516;8.286;2022-07-04T04:00:44;100740.38;;;18.33;60.91
62849;BME280;48941;49.516;8.286;2022-07-04T04:03:12;100744.59;;;18.35;60.72
62849;BME280;48941;49.516;8.286;2022-07-04T04:05:54;100745.59;;;18.34;60.58
62849;BME280;48941;49.516;8.286;2022-07-04T04:08:22;100744.41;;;18.37;60.65
62849;BME280;48941;49.516;8.286;2022-07-04T04:10:50;100742.75;;;18.36;60.86
62849;BME280;48941;49.516;8.286;2022-07-04T04:13:19;100744.94;;;18.40;60.51
62849;BME280;48941;49.516;8.286;2022-07-04T04:15:47;100746.97;;;18.38;60.41
62849;BME280;48941;49.516;8.286;2022-07-04T04:18:15;100750.19;;;18.42;60.45
62849;BME280;48941;49.516;8.286;2022-07-04T04:20:43;100752.88;;;18.42;60.50
62849;BME280;48941;49.516;8.286;2022-07-04T04:23:11;100749.00;;;18.44;60.70
62849;BME280;48941;49.516;8.286;2022-07-04T04:25:38;100748.00;;;18.45;60.85
62849;BME280;48941;49.516;8.286;2022-07-04T04:28:06;100751.03;;;18.50;60.60
62849;BME280;48941;49.516;8.286;2022-07-04T04:30:36;100752.38;;;18.55;60.83
62849;BME280;48941;49.516;8.286;2022-07-04T04:33:03;100761.00;;;18.58;60.54
62849;BME280;48941;49.516;8.286;2022-07-04T04:35:32;100757.78;;;18.63;60.35
62849;BME280;48941;49.516;8.286;2022-07-04T04:37:59;100759.47;;;18.64;60.85
62849;BME280;48941;49.516;8.286;2022-07-04T04:40:27;100762.50;;;18.69;60.29
62849;BME280;48941;49.516;8.286;2022-07-04T04:42:56;100777.88;;;18.77;60.10
62849;BME280;48941;49.516;8.286;2022-07-04T04:45:24;100774.72;;;18.81;59.99
62849;BME280;48941;49.516;8.286;2022-07-04T04:47:53;100775.03;;;18.86;60.19
62849;BME280;48941;49.516;8.286;2022-07-04T04:50:21;100779.94;;;18.91;59.75
62849;BME280;48941;49.516;8.286;2022-07-04T04:52:49;100775.72;;;18.97;59.59
62849;BME280;48941;49.516;8.286;2022-07-04T04:55:17;100787.03;;;19.00;59.44
62849;BME280;48941;49.516;8.286;2022-07-04T04:57:45;100789.06;;;19.06;59.52
62849;BME280;48941;49.516;8.286;2022-07-04T05:00:13;100788.72;;;19.09;59.19
62849;BME280;48941;49.516;8.286;2022-07-04T05:02:41;100795.13;;;19.17;59.05
62849;BME280;48941;49.516;8.286;2022-07-04T05:05:11;100797.34;;;19.21;58.93
62849;BME280;48941;49.516;8.286;2022-07-04T05:07:39;100797.31;;;19.29;58.66
62849;BME280;48941;49.516;8.286;2022-07-04T05:10:08;100805.75;;;19.35;58.91
62849;BME280;48941;49.516;8.286;2022-07-04T05:12:36;100808.13;;;19.38;58.43
62849;BME280;48941;49.516;8.286;2022-07-04T05:15:06;100799.31;;;19.44;58.62
62849;BME280;48941;49.516;8.286;2022-07-04T05:17:34;100795.09;;;19.49;58.19
62849;BME280;48941;49.516;8.286;2022-07-04T05:20:03;100797.44;;;19.61;58.32
62849;BME280;48941;49.516;8.286;2022-07-04T05:22:32;100799.28;;;19.68;58.10
62849;BME280;48941;49.516;8.286;2022-07-04T05:25:00;100801.69;;;19.72;57.86
62849;BME280;48941;49.516;8.286;2022-07-04T05:27:28;100800.16;;;19.77;57.84
62849;BME280;48941;49.516;8.286;2022-07-04T05:29:57;100798.25;;;19.86;57.50
62849;BME280;48941;49.516;8.286;2022-07-04T05:32:25;100800.63;;;19.89;56.92
62849;BME280;48941;49.516;8.286;2022-07-04T05:34:53;100802.13;;;19.92;56.56
62849;BME280;48941;49.516;8.286;2022-07-04T05:37:22;100808.50;;;19.99;56.68
62849;BME280;48941;49.516;8.286;2022-07-04T05:39:52;100812.53;;;20.03;56.44
62849;BME280;48941;49.516;8.286;2022-07-04T05:42:19;100805.75;;;20.07;56.09
62849;BME280;48941;49.516;8.286;2022-07-04T05:44:47;100819.28;;;20.15;55.97
62849;BME280;48941;49.516;8.286;2022-07-04T05:47:15;100819.41;;;20.22;56.36
62849;BME280;48941;49.516;8.286;2022-07-04T05:49:43;100814.31;;;20.27;56.26
62849;BME280;48941;49.516;8.286;2022-07-04T05:52:11;100815.28;;;20.34;56.26
62849;BME280;48941;49.516;8.286;2022-07-04T05:54:39;100826.44;;;20.39;56.31
62849;BME280;48941;49.516;8.286;2022-07-04T05:57:08;100821.97;;;20.46;56.15
62849;BME280;48941;49.516;8.286;2022-07-04T05:59:36;100826.03;;;20.50;55.88
62849;BME280;48941;49.516;8.286;2022-07-04T06:02:04;100821.59;;;20.58;55.48
62849;BME280;48941;49.516;8.286;2022-07-04T06:04:32;100821.09;;;20.62;55.72
62849;BME280;48941;49.516;8.286;2022-07-04T06:07:00;100818.31;;;20.71;55.72
62849;BME280;48941;49.516;8.286;2022-07-04T06:09:28;100821.69;;;20.73;54.42
62849;BME280;48941;49.516;8.286;2022-07-04T06:11:56;100821.19;;;20.77;54.78
62849;BME280;48941;49.516;8.286;2022-07-04T06:14:25;100822.13;;;20.84;54.29
62849;BME280;48941;49.516;8.286;2022-07-04T06:16:53;100820.56;;;20.90;54.20
62849;BME280;48941;49.516;8.286;2022-07-04T06:19:21;100823.38;;;20.97;52.94
62849;BME280;48941;49.516;8.286;2022-07-04T06:21:49;100817.06;;;21.04;52.47
62849;BME280;48941;49.516;8.286;2022-07-04T06:24:17;100819.91;;;21.11;52.19
62849;BME280;48941;49.516;8.286;2022-07-04T06:26:45;100818.88;;;21.12;52.29
62849;BME280;48941;49.516;8.286;2022-07-04T06:29:13;100813.28;;;21.14;52.50
62849;BME280;48941;49.516;8.286;2022-07-04T06:31:42;100811.91;;;21.18;52.19
62849;BME280;48941;49.516;8.286;2022-07-04T06:34:10;100808.34;;;21.17;52.65
62849;BME280;48941;49.516;8.286;2022-07-04T06:36:55;100814.34;;;21.27;52.49
62849;BME280;48941;49.516;8.286;2022-07-04T06:39:23;100814.44;;;21.34;52.51
62849;BME280;48941;49.516;8.286;2022-07-04T06:41:51;100814.09;;;21.37;52.36
62849;BME280;48941;49.516;8.286;2022-07-04T06:44:19;100820.47;;;21.44;52.66
62849;BME280;48941;49.516;8.286;2022-07-04T06:46:48;100814.38;;;21.42;52.75
62849;BME280;48941;49.516;8.286;2022-07-04T06:49:17;100812.34;;;21.44;51.43
62849;BME280;48941;49.516;8.286;2022-07-04T06:51:45;100811.81;;;21.49;51.03
62849;BME280;48941;49.516;8.286;2022-07-04T06:54:13;100814.63;;;21.56;51.04
62849;BME280;48941;49.516;8.286;2022-07-04T06:56:42;100809.88;;;21.58;50.77
62849;BME280;48941;49.516;8.286;2022-07-04T06:59:10;100808.75;;;21.67;50.40
62849;BME280;48941;49.516;8.286;2022-07-04T07:01:37;100811.84;;;21.64;50.43
62849;BME280;48941;49.516;8.286;2022-07-04T07:04:07;100808.28;;;21.63;50.45
62849;BME280;48941;49.516;8.286;2022-07-04T07:06:35;100811.25;;;21.68;50.59
62849;BME280;48941;49.516;8.286;2022-07-04T07:09:03;100812.56;;;21.73;50.51
62849;BME280;48941;49.516;8.286;2022-07-04T07:11:30;100810.25;;;21.84;50.39
62849;BME280;48941;49.516;8.286;2022-07-04T07:13:59;100809.31;;;21.92;50.37
62849;BME280;48941;49.516;8.286;2022-07-04T07:16:26;100801.66;;;21.96;49.71
62849;BME280;48941;49.516;8.286;2022-07-04T07:18:54;100804.44;;;22.02;49.60
62849;BME280;48941;49.516;8.286;2022-07-04T07:21:24;100794.13;;;22.13;49.25
62849;BME280;48941;49.516;8.286;2022-07-04T07:23:52;100801.56;;;22.19;47.66
62849;BME280;48941;49.516;8.286;2022-07-04T07:26:20;100801.72;;;22.17;47.76
62849;BME280;48941;49.516;8.286;2022-07-04T07:28:48;100793.13;;;22.28;47.15
62849;BME280;48941;49.516;8.286;2022-07-04T07:31:16;100795.09;;;22.35;46.83
62849;BME280;48941;49.516;8.286;2022-07-04T07:33:43;100788.44;;;22.37;47.11
62849;BME280;48941;49.516;8.286;2022-07-04T07:36:11;100780.19;;;22.45;46.91
62849;BME280;48941;49.516;8.286;2022-07-04T07:38:41;100775.41;;;22.47;46.81
62849;BME280;48941;49.516;8.286;2022-07-04T07:41:09;100779.59;;;22.50;46.40
62849;BME280;48941;49.516;8.286;2022-07-04T07:43:37;100772.38;;;22.57;46.54
62849;BME280;48941;49.516;8.286;2022-07-04T07:46:07;100763.47;;;22.63;46.96
62849;BME280;48941;49.516;8.286;2022-07-04T07:48:36;100770.50;;;22.79;47.09
62849;BME280;48941;49.516;8.286;2022-07-04T07:51:03;100768.00;;;22.78;46.12
62849;BME280;48941;49.516;8.286;2022-07-04T07:53:32;100769.88;;;22.77;46.45
62849;BME280;48941;49.516;8.286;2022-07-04T07:56:01;100767.47;;;22.89;45.83
62849;BME280;48941;49.516;8.286;2022-07-04T07:58:29;100776.31;;;22.98;45.74
62849;BME280;48941;49.516;8.286;2022-07-04T08:00:58;100767.72;;;22.94;45.43
62849;BME280;48941;49.516;8.286;2022-07-04T08:03:26;100769.94;;;23.05;45.34
62849;BME280;48941;49.516;8.286;2022-07-04T08:06:12;100771.28;;;23.16;45.48
62849;BME280;48941;49.516;8.286;2022-07-04T08:08:40;100768.81;;;23.21;44.41
62849;BME280;48941;49.516;8.286;2022-07-04T08:11:11;100772.00;;;23.25;44.92
62849;BME280;48941;49.516;8.286;2022-07-04T08:13:39;100767.84;;;23.29;44.60
62849;BME280;48941;49.516;8.286;2022-07-04T08:16:07;100761.75;;;23.27;44.65
62849;BME280;48941;49.516;8.286;2022-07-04T08:18:35;100760.97;;;23.33;44.26
62849;BME280;48941;49.516;8.286;2022-07-04T08:21:04;100763.13;;;23.44;44.01
62849;BME280;48941;49.516;8.286;2022-07-04T08:23:39;100765.72;;;23.53;43.83
62849;BME280;48941;49.516;8.286;2022-07-04T08:26:28;100754.25;;;23.64;43.53
62849;BME280;48941;49.516;8.286;2022-07-04T08:28:56;100757.34;;;23.82;43.02
62849;BME280;48941;49.516;8.286;2022-07-04T08:31:26;100758.22;;;23.96;42.40
62849;BME280;48941;49.516;8.286;2022-07-04T08:34:14;100759.34;;;24.09;41.99
62849;BME280;48941;49.516;8.286;2022-07-04T08:36:42;100764.38;;;24.12;42.14
62849;BME280;48941;49.516;8.286;2022-07-04T08:39:10;100765.06;;;24.20;41.74
62849;BME280;48941;49.516;8.286;2022-07-04T08:41:40;100766.78;;;24.35;41.64
62849;BME280;48941;49.516;8.286;2022-07-04T08:44:09;100767.63;;;24.42;41.29
62849;BME280;48941;49.516;8.286;2022-07-04T08:46:39;100762.03;;;24.57;41.36
62849;BME280;48941;49.516;8.286;2022-07-04T08:49:11;100758.28;;;24.78;40.75
62849;BME280;48941;49.516;8.286;2022-07-04T08:51:49;100752.66;;;24.93;40.00
62849;BME280;48941;49.516;8.286;2022-07-04T08:54:19;100745.94;;;25.02;39.65
62849;BME280;48941;49.516;8.286;2022-07-04T08:57:10;100756.22;;;25.20;39.96
62849;BME280;48941;49.516;8.286;2022-07-04T08:59:56;100746.38;;;25.32;39.73
62849;BME280;48941;49.516;8.286;2022-07-04T09:02:27;100742.41;;;25.35;39.50
62849;BME280;48941;49.516;8.286;2022-07-04T09:04:56;100749.91;;;25.53;40.31
62849;BME280;48941;49.516;8.286;2022-07-04T09:07:24;100744.00;;;25.69;39.49
62849;BME280;48941;49.516;8.286;2022-07-04T09:09:52;100744.81;;;25.83;38.96
62849;BME280;48941;49.516;8.286;2022-07-04T09:12:22;100737.84;;;25.94;38.28
62849;BME280;48941;49.516;8.286;2022-07-04T09:14:51;100742.00;;;26.10;38.11
62849;BME280;48941;49.516;8.286;2022-07-04T09:17:19;100746.13;;;26.26;37.06
62849;BME280;48941;49.516;8.286;2022-07-04T09:20:12;100745.84;;;26.40;36.46
62849;BME280;48941;49.516;8.286;2022-07-04T09:22:41;100737.28;;;26.30;36.33
62849;BME280;48941;49.516;8.286;2022-07-04T09:25:10;100731.72;;;26.43;36.48
62849;BME280;48941;49.516;8.286;2022-07-04T09:27:44;100727.25;;;26.62;35.92
62849;BME280;48941;49.516;8.286;2022-07-04T09:30:14;100724.22;;;26.71;35.28
62849;BME280;48941;49.516;8.286;2022-07-04T09:32:44;100728.41;;;26.73;35.27
62849;BME280;48941;49.516;8.286;2022-07-04T09:35:16;100721.97;;;26.93;34.17
62849;BME280;48941;49.516;8.286;2022-07-04T09:37:46;100722.28;;;27.03;34.14
62849;BME280;48941;49.516;8.286;2022-07-04T09:40:23;100716.31;;;27.13;34.33
62849;BME280;48941;49.516;8.286;2022-07-04T09:42:53;100717.44;;;27.30;34.39
62849;BME280;48941;49.516;8.286;2022-07-04T09:45:21;100716.16;;;27.51;34.37
62849;BME280;48941;49.516;8.286;2022-07-04T09:47:53;100717.16;;;27.57;34.66
62849;BME280;48941;49.516;8.286;2022-07-04T09:50:23;100714.19;;;27.77;34.54
62849;BME280;48941;49.516;8.286;2022-07-04T09:52:53;100711.13;;;27.85;33.86
62849;BME280;48941;49.516;8.286;2022-07-04T09:55:23;100708.28;;;27.80;33.47
62849;BME280;48941;49.516;8.286;2022-07-04T09:57:54;100711.78;;;27.87;33.20
62849;BME280;48941;49.516;8.286;2022-07-04T10:00:24;100709.88;;;28.06;32.75
62849;BME280;48941;49.516;8.286;2022-07-04T10:02:54;100720.25;;;28.16;32.35
62849;BME280;48941;49.516;8.286;2022-07-04T10:05:25;100723.03;;;28.28;31.97
62849;BME280;48941;49.516;8.286;2022-07-04T10:07:55;100727.81;;;28.32;30.80
62849;BME280;48941;49.516;8.286;2022-07-04T10:10:26;100714.81;;;28.28;31.43
62849;BME280;48941;49.516;8.286;2022-07-04T10:12:57;100717.97;;;28.43;31.07
62849;BME280;48941;49.516;8.286;2022-07-04T10:15:25;100707.16;;;28.48;30.54
62849;BME280;48941;49.516;8.286;2022-07-04T10:17:53;100706.41;;;28.41;30.43
62849;BME280;48941;49.516;8.286;2022-07-04T10:20:22;100705.69;;;28.46;30.03
62849;BME280;48941;49.516;8.286;2022-07-04T10:22:50;100697.22;;;28.54;30.25
62849;BME280;48941;49.516;8.286;2022-07-04T10:25:18;100700.44;;;28.74;30.38
62849;BME280;48941;49.516;8.286;2022-07-04T10:27:46;100702.72;;;28.89;30.63
62849;BME280;48941;49.516;8.286;2022-07-04T10:30:21;100704.16;;;29.04;30.06
62849;BME280;48941;49.516;8.286;2022-07-04T10:32:50;100700.81;;;29.02;29.85
62849;BME280;48941;49.516;8.286;2022-07-04T10:35:49;100698.84;;;29.21;30.29
62849;BME280;48941;49.516;8.286;2022-07-04T10:38:17;100696.31;;;29.19;29.79
62849;BME280;48941;49.516;8.286;2022-07-04T10:40:47;100702.78;;;29.25;30.71
62849;BME280;48941;49.516;8.286;2022-07-04T10:46:43;100694.53;;;29.25;29.84
62849;BME280;48941;49.516;8.286;2022-07-04T10:49:26;100693.81;;;29.29;29.50
62849;BME280;48941;49.516;8.286;2022-07-04T10:51:56;100693.56;;;29.54;29.67
62849;BME280;48941;49.516;8.286;2022-07-04T10:54:30;100692.19;;;29.69;28.41
62849;BME280;48941;49.516;8.286;2022-07-04T10:57:09;100700.66;;;29.67;28.52
62849;BME280;48941;49.516;8.286;2022-07-04T10:59:39;100690.41;;;29.86;28.81
62849;BME280;48941;49.516;8.286;2022-07-04T11:02:25;100695.88;;;30.15;29.02
62849;BME280;48941;49.516;8.286;2022-07-04T11:04:57;100688.25;;;30.17;28.08
62849;BME280;48941;49.516;8.286;2022-07-04T11:07:58;100688.63;;;30.09;28.01
62849;BME280;48941;49.516;8.286;2022-07-04T11:10:27;100686.25;;;30.12;27.88
62849;BME280;48941;49.516;8.286;2022-07-04T11:13:15;100692.16;;;30.21;27.96
62849;BME280;48941;49.516;8.286;2022-07-04T11:15:58;100688.00;;;30.18;27.78
62849;BME280;48941;49.516;8.286;2022-07-04T11:18:29;100678.28;;;29.99;27.75
62849;BME280;48941;49.516;8.286;2022-07-04T11:20:57;100678.88;;;30.01;28.03
62849;BME280;48941;49.516;8.286;2022-07-04T11:23:25;100669.34;;;30.04;27.46
62849;BME280;48941;49.516;8.286;2022-07-04T11:25:53;100673.84;;;30.10;27.47
62849;BME280;48941;49.516;8.286;2022-07-04T11:28:24;100663.69;;;30.27;27.17
62849;BME280;48941;49.516;8.286;2022-07-04T11:31:10;100669.47;;;30.26;27.47
62849;BME280;48941;49.516;8.286;2022-07-04T11:33:40;100659.28;;;30.38;26.93
62849;BME280;48941;49.516;8.286;2022-07-04T11:36:10;100657.09;;;30.40;27.28
62849;BME280;48941;49.516;8.286;2022-07-04T11:38:45;100657.19;;;30.45;27.47
62849;BME280;48941;49.516;8.286;2022-07-04T11:41:13;100656.75;;;30.36;27.26
62849;BME280;48941;49.516;8.286;2022-07-04T11:44:03;100656.59;;;30.43;27.04
62849;BME280;48941;49.516;8.286;2022-07-04T11:46:49;100653.84;;;30.43;26.84
62849;BME280;48941;49.516;8.286;2022-07-04T11:49:18;100651.78;;;30.50;27.09
62849;BME280;48941;49.516;8.286;2022-07-04T11:51:47;100648.44;;;30.48;26.84
62849;BME280;48941;49.516;8.286;2022-07-04T11:54:16;100654.69;;;30.61;26.13
62849;BME280;48941;49.516;8.286;2022-07-04T11:57:12;100637.44;;;30.82;26.11
62849;BME280;48941;49.516;8.286;2022-07-04T11:59:41;100637.78;;;31.03;26.36
62849;BME280;48941;49.516;8.286;2022-07-04T12:02:11;100642.78;;;31.06;26.13
62849;BME280;48941;49.516;8.286;2022-07-04T12:04:40;100642.44;;;31.02;25.52
62849;BME280;48941;49.516;8.286;2022-07-04T12:07:09;100630.19;;;31.10;25.97
62849;BME280;48941;49.516;8.286;2022-07-04T12:09:38;100637.91;;;31.13;26.14
62849;BME280;48941;49.516;8.286;2022-07-04T12:12:07;100632.50;;;31.18;25.93
62849;BME280;48941;49.516;8.286;2022-07-04T12:14:35;100630.44;;;31.08;26.10
62849;BME280;48941;49.516;8.286;2022-07-04T12:17:15;100629.63;;;30.91;26.50
62849;BME280;48941;49.516;8.286;2022-07-04T12:19:51;100625.19;;;31.07;26.08
62849;BME280;48941;49.516;8.286;2022-07-04T12:22:41;100618.19;;;30.99;26.02
62849;BME280;48941;49.516;8.286;2022-07-04T12:25:21;100617.44;;;30.87;25.93
62849;BME280;48941;49.516;8.286;2022-07-04T12:27:58;100613.22;;;30.62;26.06
62849;BME280;48941;49.516;8.286;2022-07-04T12:30:30;100612.63;;;30.43;26.16
62849;BME280;48941;49.516;8.286;2022-07-04T12:32:59;100600.06;;;30.64;26.40
62849;BME280;48941;49.516;8.286;2022-07-04T12:35:36;100608.22;;;30.76;26.51
62849;BME280;48941;49.516;8.286;2022-07-04T12:38:07;100601.75;;;30.87;25.86
62849;BME280;48941;49.516;8.286;2022-07-04T12:40:36;100600.53;;;30.95;26.01
62849;BME280;48941;49.516;8.286;2022-07-04T12:43:09;100593.84;;;31.08;25.75
62849;BME280;48941;49.516;8.286;2022-07-04T12:45:44;100593.97;;;31.18;25.49
62849;BME280;48941;49.516;8.286;2022-07-04T12:48:17;100587.78;;;31.28;25.25
62849;BME280;48941;49.516;8.286;2022-07-04T12:50:47;100588.53;;;31.23;25.44
62849;BME280;48941;49.516;8.286;2022-07-04T12:53:16;100589.25;;;31.35;25.14
62849;BME280;48941;49.516;8.286;2022-07-04T12:55:45;100586.56;;;31.19;25.87
62849;BME280;48941;49.516;8.286;2022-07-04T12:58:13;100594.28;;;30.83;25.81
62849;BME280;48941;49.516;8.286;2022-07-04T13:00:41;100581.63;;;30.82;25.68
62849;BME280;48941;49.516;8.286;2022-07-04T13:03:09;100579.75;;;30.87;25.41
62849;BME280;48941;49.516;8.286;2022-07-04T13:05:37;100578.94;;;30.87;25.81
62849;BME280;48941;49.516;8.286;2022-07-04T13:08:07;100574.22;;;30.82;25.83